createdAt,value
2022-12-01T00:01:48.648Z,73.50
2022-12-01T00:04:18.668Z,81.68
2022-12-01T00:06:48.537Z,79.90
2022-12-01T00:09:33.726Z,93.97
2022-12-01T00:12:06.355Z,80.55
2022-12-01T00:14:36.301Z,85.43
2022-12-01T00:17:06.142Z,100.10
2022-12-01T00:19:36.149Z,86.85
2022-12-01T00:22:06.079Z,75.82
2022-12-01T00:24:36.212Z,82.70
2022-12-01T00:27:08.646Z,86.28
2022-12-01T00:29:38.648Z,103.00
2022-12-01T00:32:09.101Z,79.28
2022-12-01T00:34:39.134Z,99.22
2022-12-01T00:37:09.410Z,103.57
2022-12-01T00:39:39.348Z,92.53
2022-12-01T00:42:13.553Z,96.97
2022-12-01T00:44:43.847Z,93.95
2022-12-01T00:47:13.768Z,93.45
2022-12-01T00:49:45.756Z,75.78
2022-12-01T00:52:15.859Z,82.60
2022-12-01T00:54:46.092Z,101.25
2022-12-01T00:57:18.585Z,80.35
2022-12-01T00:59:49.318Z,79.50
2022-12-01T01:02:19.623Z,77.72
2022-12-01T01:04:49.547Z,82.15
2022-12-01T01:07:20.456Z,84.72
2022-12-01T01:09:50.665Z,80.97
2022-12-01T01:12:23.292Z,63.88
2022-12-01T01:14:53.271Z,77.15
2022-12-01T01:17:23.168Z,80.63
2022-12-01T01:19:52.986Z,67.47
2022-12-01T01:22:22.980Z,76.82
2022-12-01T01:24:52.838Z,97.28
2022-12-01T01:27:25.302Z,73.97
2022-12-01T01:29:55.240Z,74.45
2022-12-01T01:32:25.108Z,64.95
2022-12-01T01:34:55.121Z,79.72
2022-12-01T01:37:25.111Z,94.00
2022-12-01T01:39:54.936Z,92.60
2022-12-01T01:42:27.404Z,94.13
2022-12-01T01:44:58.939Z,85.32
2022-12-01T01:47:32.040Z,96.13
2022-12-01T01:50:06.649Z,83.63
2022-12-01T01:52:36.845Z,79.35
2022-12-01T01:55:07.479Z,88.68
2022-12-01T01:57:40.683Z,72.10
2022-12-01T02:00:16.615Z,121.72
2022-12-01T02:02:48.641Z,104.13
2022-12-01T02:05:21.081Z,94.35
2022-12-01T02:07:51.497Z,72.13
2022-12-01T02:10:25.263Z,94.93
2022-12-01T02:13:09.332Z,92.80
2022-12-01T02:15:46.198Z,82.90
2022-12-01T02:18:25.964Z,87.97
2022-12-01T02:21:23.116Z,79.60
2022-12-01T02:24:28.480Z,84.07
2022-12-01T02:27:05.089Z,79.90
2022-12-01T02:29:51.277Z,85.50
2022-12-01T02:32:29.876Z,101.45
2022-12-01T02:35:01.803Z,73.27
2022-12-01T02:37:36.303Z,93.43
2022-12-01T02:40:12.981Z,89.82
2022-12-01T02:42:54.019Z,106.30
2022-12-01T02:45:35.116Z,97.90
2022-12-01T02:48:10.720Z,88.65
2022-12-01T02:50:41.379Z,101.88
2022-12-01T02:53:13.219Z,80.40
2022-12-01T02:55:50.242Z,95.32
2022-12-01T02:58:20.121Z,75.97
2022-12-01T03:01:02.458Z,75.32
2022-12-01T03:03:50.903Z,70.38
2022-12-01T03:06:28.271Z,67.30
2022-12-01T03:09:04.064Z,59.20
2022-12-01T03:11:38.780Z,51.88
2022-12-01T03:14:17.861Z,71.18
2022-12-01T03:16:53.317Z,67.93
2022-12-01T03:19:30.707Z,66.55
2022-12-01T03:22:08.878Z,58.33
2022-12-01T03:24:39.794Z,64.18
2022-12-01T03:27:10.971Z,86.20
2022-12-01T03:29:43.388Z,61.53
2022-12-01T03:32:16.883Z,54.75
2022-12-01T03:34:51.934Z,70.78
2022-12-01T03:37:25.529Z,64.15
2022-12-01T03:40:00.264Z,78.53
2022-12-01T03:42:33.082Z,44.78
2022-12-01T03:45:04.132Z,37.88
2022-12-01T03:47:35.934Z,50.55
2022-12-01T03:50:13.392Z,63.67
2022-12-01T03:52:51.050Z,65.10
2022-12-01T03:55:24.888Z,66.57
2022-12-01T03:57:59.229Z,61.72
2022-12-01T04:00:29.321Z,62.83
2022-12-01T04:02:59.787Z,68.57
2022-12-01T04:05:32.453Z,71.78
2022-12-01T04:08:02.529Z,72.25
2022-12-01T04:10:33.163Z,66.20
2022-12-01T04:13:00.992Z,78.70
2022-12-01T04:15:31.273Z,61.85
2022-12-01T04:18:01.132Z,75.65
2022-12-01T04:20:33.707Z,60.78
2022-12-01T04:23:03.554Z,70.38
2022-12-01T04:25:33.365Z,69.72
2022-12-01T04:28:03.359Z,76.68
2022-12-01T04:30:33.179Z,69.07
2022-12-01T04:33:03.037Z,68.30
2022-12-01T04:35:35.460Z,75.57
2022-12-01T04:38:05.381Z,69.43
2022-12-01T04:40:35.240Z,71.60
2022-12-01T04:43:05.066Z,54.03
2022-12-01T04:45:34.997Z,49.70
2022-12-01T04:48:04.950Z,69.85
2022-12-01T04:50:37.455Z,67.63
2022-12-01T04:53:07.803Z,65.80
2022-12-01T04:55:40.249Z,58.65
2022-12-01T04:58:10.231Z,56.17
2022-12-01T05:00:40.524Z,53.50
2022-12-01T05:03:14.847Z,53.72
2022-12-01T05:05:47.772Z,63.42
2022-12-01T05:08:17.671Z,53.22
2022-12-01T05:10:47.640Z,39.35
2022-12-01T05:13:17.606Z,51.88
2022-12-01T05:15:47.511Z,53.97
2022-12-01T05:18:17.369Z,61.85
2022-12-01T05:20:59.313Z,56.97
2022-12-01T05:23:29.918Z,64.43
2022-12-01T05:25:59.956Z,72.13
2022-12-01T05:28:30.975Z,69.30
2022-12-01T05:31:01.167Z,56.75
2022-12-01T05:33:31.852Z,65.85
2022-12-01T05:36:04.334Z,62.25
2022-12-01T05:38:34.309Z,63.50
2022-12-01T05:41:04.236Z,52.25
2022-12-01T05:43:34.075Z,49.22
2022-12-01T05:46:03.942Z,45.40
2022-12-01T05:48:34.180Z,51.50
2022-12-01T05:51:10.872Z,55.20
2022-12-01T05:53:40.965Z,49.70
2022-12-01T05:56:11.415Z,64.90
2022-12-01T05:58:41.375Z,53.38
2022-12-01T06:01:11.232Z,61.33
2022-12-01T06:03:41.245Z,66.60
2022-12-01T06:06:13.853Z,71.97
2022-12-01T06:08:43.725Z,67.05
2022-12-01T06:11:13.773Z,64.07
2022-12-01T06:13:43.679Z,81.43
2022-12-01T06:16:13.550Z,61.10
2022-12-01T06:18:43.488Z,70.65
2022-12-01T06:21:15.916Z,67.40
2022-12-01T06:23:45.859Z,77.47
2022-12-01T06:26:15.683Z,64.32
2022-12-01T06:28:45.622Z,66.43
2022-12-01T06:31:15.964Z,65.88
2022-12-01T06:33:45.907Z,54.03
2022-12-01T06:36:18.336Z,69.18
2022-12-01T06:38:48.306Z,66.68
2022-12-01T06:41:18.123Z,63.88
2022-12-01T06:43:48.017Z,80.18
2022-12-01T06:46:18.081Z,77.38
2022-12-01T06:48:50.997Z,53.22
2022-12-01T06:51:23.568Z,61.78
2022-12-01T06:54:00.820Z,66.95
2022-12-01T06:56:33.745Z,67.28
2022-12-01T06:59:03.890Z,64.85
2022-12-01T07:01:34.122Z,74.45
2022-12-01T07:04:04.132Z,70.88
2022-12-01T07:06:36.578Z,56.85
2022-12-01T07:09:07.008Z,48.97
2022-12-01T07:11:37.066Z,54.13
2022-12-01T07:14:06.968Z,68.53
2022-12-01T07:16:36.949Z,58.03
2022-12-01T07:19:06.844Z,57.22
2022-12-01T07:21:39.323Z,63.45
2022-12-01T07:24:10.148Z,55.75
2022-12-01T07:26:40.440Z,54.75
2022-12-01T07:29:10.575Z,53.45
2022-12-01T07:31:41.503Z,54.78
2022-12-01T07:34:14.252Z,55.70
2022-12-01T07:36:46.741Z,59.83
2022-12-01T07:39:16.619Z,61.92
2022-12-01T07:41:46.493Z,62.67
2022-12-01T07:44:16.614Z,65.65
2022-12-01T07:46:46.712Z,58.53
2022-12-01T07:49:17.529Z,59.58
2022-12-01T07:51:50.245Z,72.47
2022-12-01T07:54:21.445Z,58.15
2022-12-01T07:56:51.570Z,62.42
2022-12-01T07:59:21.411Z,58.38
2022-12-01T08:01:51.293Z,59.85
2022-12-01T08:04:21.248Z,58.22
2022-12-01T08:06:53.693Z,49.53
2022-12-01T08:09:23.915Z,68.07
2022-12-01T08:11:53.804Z,59.03
2022-12-01T08:14:23.708Z,63.50
2022-12-01T08:16:53.652Z,35.63
2022-12-01T08:19:23.502Z,58.50
2022-12-01T08:21:56.015Z,66.80
2022-12-01T08:24:25.874Z,54.42
2022-12-01T08:26:55.824Z,61.28
2022-12-01T08:29:26.004Z,55.95
2022-12-01T08:31:55.906Z,65.75
2022-12-01T08:34:25.824Z,55.33
2022-12-01T08:36:58.310Z,48.83
2022-12-01T08:39:28.301Z,70.85
2022-12-01T08:41:58.227Z,49.20
2022-12-01T08:44:28.152Z,66.10
2022-12-01T08:46:58.072Z,53.53
2022-12-01T08:49:28.060Z,47.00
2022-12-01T08:52:00.487Z,62.30
2022-12-01T08:54:30.386Z,59.60
2022-12-01T08:57:00.219Z,47.65
2022-12-01T08:59:30.411Z,50.40
2022-12-01T09:02:05.350Z,55.67
2022-12-01T09:04:36.767Z,51.28
2022-12-01T09:07:09.268Z,49.95
2022-12-01T09:09:39.233Z,50.33
2022-12-01T09:12:09.689Z,47.85
2022-12-01T09:14:41.830Z,70.10
2022-12-01T09:17:12.427Z,46.50
2022-12-01T09:19:42.341Z,63.45
2022-12-01T09:22:15.041Z,52.55
2022-12-01T09:24:45.289Z,44.05
2022-12-01T09:27:15.151Z,46.72
2022-12-01T09:29:45.059Z,45.90
2022-12-01T09:32:14.890Z,40.05
2022-12-01T09:34:44.769Z,60.00
2022-12-01T09:37:17.159Z,50.50
2022-12-01T09:39:47.333Z,49.25
2022-12-01T09:42:32.276Z,41.35
2022-12-01T09:45:05.797Z,49.83
2022-12-01T09:47:37.981Z,43.83
2022-12-01T09:50:12.836Z,50.08
2022-12-01T09:52:48.047Z,55.88
2022-12-01T09:55:19.904Z,50.72
2022-12-01T09:57:50.928Z,47.33
2022-12-01T10:00:23.951Z,43.28
2022-12-01T10:02:56.598Z,46.92
2022-12-01T10:05:30.041Z,46.00
2022-12-01T10:08:04.728Z,52.88
2022-12-01T10:10:37.874Z,53.65
2022-12-01T10:13:14.484Z,57.13
2022-12-01T10:15:50.270Z,50.28
2022-12-01T10:18:27.473Z,50.50
2022-12-01T10:21:06.996Z,69.47
2022-12-01T10:26:17.774Z,55.38
2022-12-01T10:28:58.196Z,44.17
2022-12-01T10:31:34.709Z,47.15
2022-12-01T10:34:06.698Z,59.38
2022-12-01T10:36:37.190Z,55.65
2022-12-01T10:39:10.451Z,61.00
2022-12-01T10:41:41.190Z,51.50
2022-12-01T10:44:11.867Z,29.02
2022-12-01T10:46:46.624Z,39.72
2022-12-01T10:49:17.748Z,36.42
2022-12-01T10:51:56.760Z,49.45
2022-12-01T10:54:38.195Z,43.20
2022-12-01T10:57:09.678Z,43.50
2022-12-01T10:59:41.810Z,37.33
2022-12-01T11:02:19.336Z,35.75
2022-12-01T11:04:55.035Z,36.30
2022-12-01T11:07:27.048Z,53.45
2022-12-01T11:10:17.514Z,36.70
2022-12-01T11:12:49.692Z,29.85
2022-12-01T11:15:25.715Z,34.10
2022-12-01T11:18:01.293Z,32.13
2022-12-01T11:20:34.145Z,36.78
2022-12-01T11:23:29.974Z,35.72
2022-12-01T11:26:09.499Z,39.70
2022-12-01T11:28:40.069Z,34.03
2022-12-01T11:31:12.023Z,32.67
2022-12-01T11:33:47.892Z,28.33
2022-12-01T11:36:28.664Z,31.38
2022-12-01T11:39:00.535Z,33.38
2022-12-01T11:41:36.283Z,40.72
2022-12-01T11:44:22.456Z,36.38
2022-12-01T11:47:21.653Z,39.83
2022-12-01T11:49:51.144Z,33.63
2022-12-01T11:52:27.421Z,33.05
2022-12-01T11:55:10.189Z,31.67
2022-12-01T11:57:46.270Z,38.08
2022-12-01T12:00:18.070Z,39.78
2022-12-01T12:02:57.662Z,39.47
2022-12-01T12:05:42.424Z,41.95
2022-12-01T12:08:18.565Z,36.95
2022-12-01T12:10:55.547Z,33.45
2022-12-01T12:13:44.888Z,39.47
2022-12-01T12:16:21.714Z,37.33
2022-12-01T12:19:02.306Z,33.33
2022-12-01T12:21:36.213Z,35.65
2022-12-01T12:24:23.690Z,38.60
2022-12-01T12:26:57.857Z,41.60
2022-12-01T12:29:41.104Z,40.42
2022-12-01T12:32:23.534Z,40.78
2022-12-01T12:34:57.675Z,35.03
2022-12-01T12:37:34.713Z,41.15
2022-12-01T12:40:22.476Z,43.80
2022-12-01T12:43:04.377Z,55.65
2022-12-01T12:45:45.744Z,54.50
2022-12-01T12:48:27.087Z,68.65
2022-12-01T12:51:03.579Z,83.50
2022-12-01T12:53:38.111Z,55.88
2022-12-01T12:56:10.616Z,62.30
2022-12-01T12:58:44.762Z,57.42
2022-12-01T13:01:20.932Z,265.77
2022-12-01T13:03:54.693Z,186.60
2022-12-01T13:06:28.968Z,97.93
2022-12-01T13:09:02.321Z,260.00
2022-12-01T13:11:35.583Z,290.13
2022-12-01T13:14:09.423Z,201.85
2022-12-01T13:16:46.131Z,248.60
2022-12-01T13:19:18.182Z,148.93
2022-12-01T13:21:49.880Z,101.10
2022-12-01T13:24:23.526Z,44.92
2022-12-01T13:26:57.601Z,81.20
2022-12-01T13:29:28.411Z,64.30
2022-12-01T13:32:01.097Z,94.22
2022-12-01T13:34:42.952Z,76.78
2022-12-01T13:37:13.768Z,60.40
2022-12-01T13:39:44.726Z,69.70
2022-12-01T13:42:24.497Z,59.25
2022-12-01T13:44:56.048Z,65.05
2022-12-01T13:47:56.996Z,63.20
2022-12-01T13:50:56.680Z,45.50
2022-12-01T13:53:31.969Z,63.40
2022-12-01T13:56:24.281Z,60.03
2022-12-01T13:58:56.112Z,56.42
2022-12-01T14:01:47.924Z,57.47
2022-12-01T14:04:44.151Z,73.85
2022-12-01T14:07:24.513Z,58.63
2022-12-01T14:09:56.295Z,73.88
2022-12-01T14:12:31.602Z,68.38
2022-12-01T14:15:03.188Z,54.35
2022-12-01T14:17:34.850Z,45.47
2022-12-01T14:20:22.315Z,97.47
2022-12-01T14:23:07.556Z,68.45
2022-12-01T14:25:37.720Z,63.63
2022-12-01T14:28:08.823Z,64.22
2022-12-01T14:31:07.038Z,263.25
2022-12-01T14:33:49.780Z,170.07
2022-12-01T14:36:35.432Z,327.65
2022-12-01T14:39:09.768Z,378.42
2022-12-01T14:41:44.661Z,541.47
2022-12-01T14:44:19.616Z,303.10
2022-12-01T14:46:54.878Z,113.18
2022-12-01T14:49:28.412Z,69.78
2022-12-01T14:52:06.201Z,67.30
2022-12-01T14:54:49.474Z,50.15
2022-12-01T14:57:22.681Z,41.10
2022-12-01T15:00:05.384Z,106.95
2022-12-01T15:02:35.414Z,122.43
2022-12-01T15:05:10.826Z,102.68
2022-12-01T15:07:46.088Z,47.08
2022-12-01T15:10:21.288Z,37.53
2022-12-01T15:12:52.317Z,35.65
2022-12-01T15:15:24.914Z,41.80
2022-12-01T15:17:57.762Z,30.92
2022-12-01T15:20:31.228Z,41.13
2022-12-01T15:23:05.328Z,31.77
2022-12-01T15:25:37.216Z,35.85
2022-12-01T15:28:15.998Z,35.72
2022-12-01T15:30:47.381Z,34.53
2022-12-01T15:33:26.962Z,49.88
2022-12-01T15:35:57.735Z,38.38
2022-12-01T15:38:32.218Z,40.10
2022-12-01T15:41:28.404Z,44.83
2022-12-01T15:43:58.645Z,30.92
2022-12-01T15:46:34.620Z,44.28
2022-12-01T15:49:20.813Z,44.83
2022-12-01T15:51:51.769Z,247.88
2022-12-01T15:54:26.649Z,166.30
2022-12-01T15:56:58.747Z,397.65
2022-12-01T15:59:32.203Z,38.55
2022-12-01T16:02:02.601Z,84.30
2022-12-01T16:04:35.505Z,39.53
2022-12-01T16:07:07.922Z,150.75
2022-12-01T16:09:42.229Z,123.30
2022-12-01T16:12:26.639Z,193.90
2022-12-01T16:15:15.489Z,52.42
2022-12-01T16:17:48.406Z,52.90
2022-12-01T16:20:21.652Z,66.82
2022-12-01T16:22:53.764Z,53.30
2022-12-01T16:25:32.137Z,37.80
2022-12-01T16:28:02.263Z,47.45
2022-12-01T16:30:38.241Z,30.00
2022-12-01T16:33:10.075Z,40.10
2022-12-01T16:35:39.899Z,33.83
2022-12-01T16:38:16.464Z,104.95
2022-12-01T16:40:49.764Z,173.35
2022-12-01T16:43:21.208Z,109.07
2022-12-01T16:45:53.087Z,110.53
2022-12-01T16:48:23.592Z,75.47
2022-12-01T16:50:54.124Z,40.55
2022-12-01T16:53:24.360Z,38.85
2022-12-01T16:55:58.797Z,85.22
2022-12-01T16:58:29.523Z,34.15
2022-12-01T17:00:59.944Z,31.58
2022-12-01T17:03:31.165Z,37.67
2022-12-01T17:06:02.833Z,37.95
2022-12-01T17:08:33.143Z,36.58
2022-12-01T17:11:07.989Z,70.03
2022-12-01T17:13:38.603Z,49.03
2022-12-01T17:16:15.177Z,57.55
2022-12-01T17:18:46.833Z,62.58
2022-12-01T17:21:16.747Z,57.53
2022-12-01T17:23:46.650Z,64.07
2022-12-01T17:26:20.559Z,65.47
2022-12-01T17:28:50.509Z,45.20
2022-12-01T17:31:20.369Z,49.40
2022-12-01T17:33:50.653Z,106.40
2022-12-01T17:36:21.184Z,46.33
2022-12-01T17:38:51.152Z,47.15
2022-12-01T17:41:25.588Z,38.50
2022-12-01T17:43:55.481Z,33.35
2022-12-01T17:46:25.310Z,79.80
2022-12-01T17:48:55.223Z,28.70
2022-12-01T17:51:25.124Z,32.80
2022-12-01T17:53:56.036Z,38.33
2022-12-01T17:56:28.553Z,43.72
2022-12-01T17:58:58.456Z,42.67
2022-12-01T18:01:30.505Z,37.63
2022-12-01T18:04:01.351Z,31.40
2022-12-01T18:06:31.306Z,29.27
2022-12-01T18:09:02.618Z,32.70
2022-12-01T18:11:35.160Z,20.80
2022-12-01T18:14:05.100Z,44.58
2022-12-01T18:16:35.720Z,26.75
2022-12-01T18:19:05.876Z,17.00
2022-12-01T18:21:35.745Z,23.45
2022-12-01T18:24:09.025Z,21.45
2022-12-01T18:26:42.773Z,29.38
2022-12-01T18:29:16.131Z,22.77
2022-12-01T18:31:47.403Z,39.00
2022-12-01T18:34:17.418Z,89.82
2022-12-01T18:36:47.915Z,43.60
2022-12-01T18:39:17.799Z,127.03
2022-12-01T18:41:50.237Z,204.00
2022-12-01T18:44:20.263Z,93.93
2022-12-01T18:46:50.149Z,251.27
2022-12-01T18:49:20.084Z,374.83
2022-12-01T18:51:50.044Z,144.35
2022-12-01T18:54:20.196Z,139.48
2022-12-01T18:56:59.028Z,40.05
2022-12-01T18:59:29.249Z,19.70
2022-12-01T19:01:59.246Z,26.73
2022-12-01T19:04:29.187Z,21.20
2022-12-01T19:06:59.079Z,66.47
2022-12-01T19:09:29.200Z,190.13
2022-12-01T19:12:02.830Z,73.53
2022-12-01T19:14:32.993Z,78.78
2022-12-01T19:17:04.153Z,67.35
2022-12-01T19:19:37.606Z,117.30
2022-12-01T19:22:07.919Z,36.60
2022-12-01T19:24:37.871Z,70.60
2022-12-01T19:27:10.380Z,35.63
2022-12-01T19:29:40.276Z,20.65
2022-12-01T19:32:10.336Z,44.30
2022-12-01T19:34:40.283Z,41.90
2022-12-01T19:37:11.081Z,42.33
2022-12-01T19:39:41.057Z,23.15
2022-12-01T19:42:14.756Z,24.73
2022-12-01T19:44:44.710Z,35.80
2022-12-01T19:47:17.757Z,24.80
2022-12-01T19:49:51.728Z,28.65
2022-12-01T19:52:21.668Z,11.15
2022-12-01T19:54:51.785Z,24.65
2022-12-01T19:57:24.661Z,21.75
2022-12-01T19:59:54.525Z,25.92
2022-12-01T20:02:28.898Z,23.85
2022-12-01T20:04:59.356Z,20.58
2022-12-01T20:07:29.424Z,22.05
2022-12-01T20:09:59.427Z,44.90
2022-12-01T20:12:32.044Z,33.45
2022-12-01T20:15:01.963Z,22.40
2022-12-01T20:17:31.961Z,26.20
2022-12-01T20:20:03.194Z,25.42
2022-12-01T20:22:34.747Z,25.00
2022-12-01T20:25:04.710Z,22.90
2022-12-01T20:27:37.281Z,25.20
2022-12-01T20:30:08.389Z,30.40
2022-12-01T20:32:38.350Z,26.10
2022-12-01T20:35:10.157Z,35.20
2022-12-01T20:37:40.464Z,22.17
2022-12-01T20:40:11.683Z,31.17
2022-12-01T20:42:44.243Z,28.75
2022-12-01T20:45:14.233Z,26.45
2022-12-01T20:47:44.167Z,23.80
2022-12-01T20:50:14.160Z,24.38
2022-12-01T20:52:44.017Z,21.70
2022-12-01T20:55:13.922Z,21.48
2022-12-01T20:57:46.456Z,28.00
2022-12-01T21:00:17.902Z,21.48
2022-12-01T21:02:48.091Z,26.27
2022-12-01T21:05:18.119Z,24.63
2022-12-01T21:07:48.086Z,28.02
2022-12-01T21:10:20.174Z,22.25
2022-12-01T21:13:24.003Z,18.95
2022-12-01T21:16:03.137Z,16.17
2022-12-01T21:18:40.570Z,22.02
2022-12-01T21:21:23.525Z,18.77
2022-12-01T21:24:13.681Z,27.88
2022-12-01T21:26:44.960Z,28.45
2022-12-01T21:29:22.499Z,16.48
2022-12-01T21:31:55.004Z,15.52
2022-12-01T21:34:26.620Z,22.65
2022-12-01T21:36:59.143Z,25.67
2022-12-01T21:39:29.413Z,15.55
2022-12-01T21:42:03.093Z,29.98
2022-12-01T21:44:40.168Z,28.20
2022-12-01T21:47:18.754Z,21.92
2022-12-01T21:49:48.763Z,44.95
2022-12-01T21:52:21.851Z,51.47
2022-12-01T21:54:52.548Z,30.27
2022-12-01T21:57:42.395Z,35.88
2022-12-01T22:00:32.866Z,35.88
2022-12-01T22:03:18.873Z,34.30
2022-12-01T22:06:13.487Z,29.52
2022-12-01T22:08:43.865Z,24.45
2022-12-01T22:11:18.730Z,32.40
2022-12-01T22:13:50.486Z,42.25
2022-12-01T22:16:24.908Z,28.77
2022-12-01T22:18:56.132Z,23.60
2022-12-01T22:21:38.338Z,31.67
2022-12-01T22:24:22.192Z,24.95
2022-12-01T22:26:54.451Z,28.13
2022-12-01T22:29:30.131Z,26.23
2022-12-01T22:32:35.196Z,22.80
2022-12-01T22:35:21.496Z,24.65
2022-12-01T22:37:52.774Z,31.98
2022-12-01T22:40:44.064Z,31.30
2022-12-01T22:43:32.429Z,20.33
2022-12-01T22:46:23.748Z,26.63
2022-12-01T22:48:57.628Z,24.55
2022-12-01T22:51:39.027Z,31.13
2022-12-01T22:54:35.358Z,19.17
2022-12-01T22:57:08.842Z,26.38
2022-12-01T22:59:40.978Z,14.85
2022-12-01T23:02:20.509Z,19.20
2022-12-01T23:04:56.261Z,24.20
2022-12-01T23:07:31.270Z,20.88
2022-12-01T23:10:07.478Z,14.43
2022-12-01T23:12:38.553Z,18.75
2022-12-01T23:15:24.395Z,23.75
2022-12-01T23:17:54.404Z,26.15
2022-12-01T23:20:33.411Z,21.63
2022-12-01T23:23:05.469Z,20.42
2022-12-01T23:25:37.551Z,17.50
2022-12-01T23:28:10.728Z,19.88
2022-12-01T23:30:42.427Z,16.60
2022-12-01T23:33:21.822Z,13.30
2022-12-01T23:38:27.842Z,14.68
2022-12-01T23:41:01.082Z,14.07
2022-12-01T23:43:33.039Z,21.73
2022-12-01T23:46:07.679Z,21.67
2022-12-01T23:48:40.051Z,15.57
2022-12-01T23:51:18.943Z,19.63
2022-12-01T23:53:49.432Z,18.40
2022-12-01T23:56:22.651Z,18.95
2022-12-01T23:58:52.660Z,23.02
